Time;durP1;ratioP1;P1;durP2;ratioP2;P2;SDS_P1;SDS_P2;PMS_P1;PMS_P2;Temp;Humidity;BMP_temperature;BMP_pressure;BME280_temperature;BME280_humidity;BME280_pressure;Samples;Min_cycle;Max_cycle;Signal;HPM_P1;HPM_P2
2022/09/16 00:00:36;;;;;;;4.97;1.70;;;;;;;15.13;66.88;99680.28;5112430;28;20051;-63
2022/09/16 00:03:06;;;;;;;3.45;1.65;;;;;;;15.10;67.42;99675.41;5112179;28;20058;-63
2022/09/16 00:05:33;;;;;;;4.15;1.50;;;;;;;15.04;66.92;99681.66;5112146;28;20408;-62
2022/09/16 00:08:01;;;;;;;5.72;1.80;;;;;;;15.02;66.71;99685.63;5110085;28;20411;-63
2022/09/16 00:10:29;;;;;;;5.80;1.85;;;;;;;15.02;66.75;99680.03;5111980;28;20051;-64
2022/09/16 00:12:57;;;;;;;3.67;1.60;;;;;;;15.02;67.19;99677.22;5107316;28;20052;-63
2022/09/16 00:15:24;;;;;;;4.15;1.50;;;;;;;15.09;66.53;99676.56;5091529;28;20080;-63
2022/09/16 00:17:51;;;;;;;6.07;1.70;;;;;;;15.10;66.78;99675.41;5091694;28;20060;-63
2022/09/16 00:20:20;;;;;;;4.28;1.45;;;;;;;15.10;67.45;99674.56;5091774;28;20079;-63
2022/09/16 00:22:47;;;;;;;9.37;1.63;;;;;;;15.13;66.86;99680.28;5091148;28;20060;-63
2022/09/16 00:25:14;;;;;;;3.38;1.35;;;;;;;15.14;66.92;99681.09;5091788;28;20480;-63
2022/09/16 00:27:42;;;;;;;6.47;1.67;;;;;;;15.12;66.54;99689.06;5092033;28;20416;-63
2022/09/16 00:30:10;;;;;;;4.65;1.48;;;;;;;15.17;66.84;99685.97;5091950;28;20055;-63
2022/09/16 00:32:37;;;;;;;2.83;1.27;;;;;;;15.18;66.54;99679.19;5093485;28;20056;-63
2022/09/16 00:35:05;;;;;;;2.97;1.40;;;;;;;15.20;66.48;99677.66;5095309;28;20055;-63
2022/09/16 00:37:34;;;;;;;2.33;1.20;;;;;;;15.19;66.50;99676.00;5114291;28;20059;-63
2022/09/16 00:40:02;;;;;;;4.85;1.92;;;;;;;15.20;65.96;99676.81;5115720;28;20401;-63
2022/09/16 00:42:29;;;;;;;4.38;1.45;;;;;;;15.20;65.87;99676.81;5115587;28;20078;-63
2022/09/16 00:44:59;;;;;;;4.88;1.42;;;;;;;15.15;65.93;99674.31;5115156;28;20519;-63
2022/09/16 00:47:29;;;;;;;;;;;;;;;15.12;66.17;99669.41;5116064;28;20071;-63
2022/09/16 00:50:02;;;;;;;3.55;1.35;;;;;;;15.12;65.90;99672.22;5109416;28;19923;-63
2022/09/16 00:52:31;;;;;;;3.88;1.60;;;;;;;15.16;66.19;99670.31;5095356;28;20044;-62
2022/09/16 00:55:02;;;;;;;3.47;1.60;;;;;;;15.13;65.60;99666.25;5095004;28;20382;-63
2022/09/16 00:57:30;;;;;;;4.00;1.77;;;;;;;15.07;66.12;99666.91;5104247;28;20510;-62
2022/09/16 00:59:58;;;;;;;4.47;1.48;;;;;;;15.06;66.03;99665.28;5115246;28;20048;-63
2022/09/16 01:02:27;;;;;;;3.85;1.70;;;;;;;15.08;66.43;99668.56;5115405;28;20058;-63
2022/09/16 01:05:00;;;;;;;5.07;1.90;;;;;;;15.14;66.11;99658.66;5102451;28;20059;-63
2022/09/16 01:07:31;;;;;;;3.88;1.30;;;;;;;15.15;66.10;99665.91;5095027;28;20435;-63
2022/09/16 01:10:00;;;;;;;5.03;1.35;;;;;;;15.17;66.06;99672.75;5094944;28;20047;-62
2022/09/16 01:12:29;;;;;;;3.00;1.52;;;;;;;15.12;66.00;99659.03;5094693;28;20048;-63
2022/09/16 01:14:58;;;;;;;4.57;1.40;;;;;;;15.10;66.69;99666.16;5094494;28;20060;-63
2022/09/16 01:17:35;;;;;;;2.38;1.30;;;;;;;14.95;66.34;99671.47;5094614;28;20052;-63
2022/09/16 01:20:36;;;;;;;4.70;1.67;;;;;;;14.96;66.39;99673.06;5094775;28;20059;-63
2022/09/16 01:23:43;;;;;;;2.70;1.50;;;;;;;14.98;66.38;99676.31;5061191;28;20404;-63
2022/09/16 01:26:27;;;;;;;3.72;1.80;;;;;;;14.98;66.99;99661.50;5046819;28;20059;-63
2022/09/16 01:29:27;;;;;;;3.80;1.40;;;;;;;14.91;67.65;99670.56;5094376;28;20055;-63
2022/09/16 01:32:02;;;;;;;3.03;1.23;;;;;;;14.96;66.34;99683.47;5093195;28;20048;-62
2022/09/16 01:34:39;;;;;;;4.78;1.30;;;;;;;14.99;66.62;99682.75;5093373;28;20056;-63
2022/09/16 01:37:10;;;;;;;4.90;1.80;;;;;;;14.92;67.32;99680.56;5093864;28;20052;-63
2022/09/16 01:39:47;;;;;;;3.83;1.33;;;;;;;14.99;67.08;99677.13;5093820;28;20201;-63
2022/09/16 01:42:29;;;;;;;3.50;1.63;;;;;;;14.83;67.05;99677.16;5092901;28;20048;-62
2022/09/16 01:45:03;;;;;;;5.15;1.80;;;;;;;14.84;67.32;99678.78;5092768;28;20055;-62
2022/09/16 01:47:41;;;;;;;5.88;1.70;;;;;;;14.86;66.57;99673.63;5094112;28;20059;-63
2022/09/16 01:50:17;;;;;;;5.20;1.63;;;;;;;14.85;67.66;99680.41;5093962;28;20055;-63
2022/09/16 01:52:54;;;;;;;3.65;1.50;;;;;;;14.80;67.41;99675.91;5094223;28;20476;-63
2022/09/16 01:55:28;;;;;;;4.20;1.52;;;;;;;14.76;67.31;99682.56;5093287;28;20508;-61
2022/09/16 01:58:00;;;;;;;4.53;1.52;;;;;;;14.81;66.96;99677.50;5093651;28;20420;-63
2022/09/16 02:00:28;;;;;;;6.10;1.40;;;;;;;14.75;68.26;99678.16;5093477;28;20058;-62
2022/09/16 02:03:02;;;;;;;3.65;1.60;;;;;;;14.80;67.86;99684.31;5106937;28;20051;-63
2022/09/16 02:05:34;;;;;;;5.70;1.60;;;;;;;14.75;68.26;99676.16;5111790;28;20063;-63
2022/09/16 02:08:05;;;;;;;4.05;1.63;;;;;;;14.71;67.20;99674.44;5111022;28;20044;-63
2022/09/16 02:10:38;;;;;;;4.93;1.83;;;;;;;14.74;68.14;99676.50;5093762;28;20419;-62
2022/09/16 02:13:13;;;;;;;4.45;2.00;;;;;;;14.78;67.63;99672.66;5107829;27;20051;-63
2022/09/16 02:15:43;;;;;;;4.18;1.63;;;;;;;14.74;67.31;99680.16;5118185;27;20051;-63
2022/09/16 02:18:16;;;;;;;3.13;1.42;;;;;;;14.64;67.63;99668.69;5113780;28;20055;-63
2022/09/16 02:20:47;;;;;;;3.88;1.60;;;;;;;14.75;68.01;99672.56;5113854;28;20056;-63
2022/09/16 02:23:19;;;;;;;4.53;1.70;;;;;;;14.74;67.53;99670.91;5113682;28;20518;-63
2022/09/16 02:25:50;;;;;;;6.00;1.67;;;;;;;14.69;67.55;99665.59;5113422;28;20062;-63
2022/09/16 02:28:24;;;;;;;6.03;1.77;;;;;;;14.79;67.83;99667.84;5111853;28;20054;-62
2022/09/16 02:30:54;;;;;;;5.28;1.55;;;;;;;14.69;67.64;99665.59;5093656;28;20056;-63
2022/09/16 02:33:29;;;;;;;3.75;1.58;;;;;;;14.76;68.30;99665.75;5093295;28;20507;-63
2022/09/16 02:35:57;;;;;;;4.10;1.63;;;;;;;14.74;68.17;99660.53;5093144;28;20477;-63
2022/09/16 02:38:30;;;;;;;6.57;2.03;;;;;;;14.72;68.38;99668.50;5093003;28;20063;-63
2022/09/16 02:40:59;;;;;;;4.60;1.60;;;;;;;14.70;68.55;99668.03;5093415;28;20142;-58
2022/09/16 02:43:28;;;;;;;4.45;1.80;;;;;;;14.69;67.83;99662.78;5096463;28;20051;-59
2022/09/16 02:46:03;;;;;;;5.00;1.75;;;;;;;14.76;67.41;99669.38;5113259;28;20059;-58
2022/09/16 02:48:42;;;;;;;6.07;1.60;;;;;;;14.81;68.64;99660.69;5113175;28;20375;-58
2022/09/16 02:51:17;;;;;;;6.78;2.03;;;;;;;14.69;68.17;99665.59;5113296;28;20052;-58
2022/09/16 02:53:48;;;;;;;5.85;2.05;;;;;;;14.70;68.60;99664.41;5113132;28;20067;-58
2022/09/16 02:56:22;;;;;;;4.25;2.50;;;;;;;14.67;69.38;99659.53;5111427;28;20074;-63
2022/09/16 02:58:50;;;;;;;6.00;2.35;;;;;;;14.59;70.14;99667.78;5112998;28;20054;-62
2022/09/16 03:01:19;;;;;;;5.25;2.42;;;;;;;14.65;69.10;99653.47;5113060;28;20142;-63
2022/09/16 03:03:48;;;;;;;4.63;1.80;;;;;;;14.56;70.30;99659.25;5113420;28;20399;-63
2022/09/16 03:06:20;;;;;;;4.75;2.88;;;;;;;14.61;69.59;99653.38;5113403;28;20055;-63
2022/09/16 03:08:49;;;;;;;4.50;2.17;;;;;;;14.59;70.16;99662.16;5113057;28;20055;-63
2022/09/16 03:11:35;;;;;;;6.30;3.38;;;;;;;14.55;69.58;99647.25;5109411;28;20052;-63
2022/09/16 03:14:19;;;;;;;6.60;2.60;;;;;;;14.45;70.45;99644.13;5127135;27;20418;-62
2022/09/16 03:16:53;;;;;;;4.05;2.10;;;;;;;14.46;71.23;99648.56;5133355;27;20059;-63
2022/09/16 03:19:30;;;;;;;4.65;2.15;;;;;;;14.41;70.76;99650.44;5133268;27;20051;-63
2022/09/16 03:22:06;;;;;;;4.00;1.90;;;;;;;14.39;71.44;99646.38;5099525;27;20074;-63
2022/09/16 03:24:46;;;;;;;4.90;1.90;;;;;;;14.44;71.48;99645.31;5092150;28;20048;-62
2022/09/16 03:27:19;;;;;;;7.38;2.53;;;;;;;14.30;71.30;99640.13;5091780;28;20051;-63
2022/09/16 03:29:52;;;;;;;6.50;1.92;;;;;;;14.41;70.34;99633.63;5092489;28;20056;-63
2022/09/16 03:32:23;;;;;;;5.03;2.00;;;;;;;14.45;71.06;99639.34;5092498;28;20393;-63
2022/09/16 03:34:57;;;;;;;4.55;1.70;;;;;;;14.45;70.09;99635.72;5092332;28;20056;-63
2022/09/16 03:37:27;;;;;;;5.05;2.20;;;;;;;14.26;70.98;99642.03;5092301;28;20052;-63
2022/09/16 03:39:59;;;;;;;5.45;1.92;;;;;;;14.38;70.36;99641.94;5092310;28;20081;-63
2022/09/16 03:42:26;;;;;;;6.65;2.00;;;;;;;14.33;69.90;99642.22;5110417;28;20044;-63
2022/09/16 03:44:54;;;;;;;4.18;1.77;;;;;;;14.29;70.24;99644.13;5112356;28;20419;-63
2022/09/16 03:47:21;;;;;;;6.10;1.75;;;;;;;14.18;71.15;99636.25;5107403;28;20052;-63
2022/09/16 03:49:49;;;;;;;5.00;1.67;;;;;;;14.24;69.91;99638.75;5092222;28;20062;-63
2022/09/16 03:52:18;;;;;;;4.72;1.67;;;;;;;14.27;69.46;99635.25;5092173;28;20060;-63
2022/09/16 03:54:45;;;;;;;4.07;1.67;;;;;;;14.27;70.77;99636.06;5095017;28;20063;-63
2022/09/16 03:57:13;;;;;;;5.35;1.75;;;;;;;14.27;69.36;99624.88;5110542;28;20063;-63
2022/09/16 03:59:40;;;;;;;3.58;1.58;;;;;;;14.26;70.07;99633.63;5111586;28;20051;-64
2022/09/16 04:02:08;;;;;;;5.78;1.90;;;;;;;14.18;71.00;99636.25;5112643;28;20545;-64
2022/09/16 04:04:35;;;;;;;7.43;1.70;;;;;;;14.25;70.48;99627.22;5112337;28;20055;-64
2022/09/16 04:07:02;;;;;;;6.60;1.70;;;;;;;14.21;69.31;99638.34;5113289;28;20419;-64
2022/09/16 04:09:31;;;;;;;3.83;1.67;;;;;;;14.21;70.36;99621.53;5116182;28;20062;-63
2022/09/16 04:11:58;;;;;;;4.50;2.00;;;;;;;14.31;69.79;99622.97;5105175;28;20449;-63
2022/09/16 04:14:25;;;;;;;3.78;1.63;;;;;;;14.37;69.70;99627.13;5130619;27;20054;-63
2022/09/16 04:16:54;;;;;;;5.47;1.58;;;;;;;14.38;69.61;99625.97;5136744;27;20051;-64
2022/09/16 04:19:21;;;;;;;5.15;2.47;;;;;;;14.36;68.57;99622.72;5136848;27;20047;-63
2022/09/16 04:21:48;;;;;;;6.75;2.42;;;;;;;14.39;69.16;99626.78;5134902;27;20058;-63
2022/09/16 04:24:16;;;;;;;7.65;2.50;;;;;;;14.41;69.46;99624.44;5095436;28;20052;-63
2022/09/16 04:26:45;;;;;;;5.95;2.28;;;;;;;14.39;68.94;99626.78;5104902;28;20055;-64
2022/09/16 04:29:12;;;;;;;6.18;2.45;;;;;;;14.44;68.95;99628.50;5115609;28;20054;-63
2022/09/16 04:31:40;;;;;;;5.88;2.00;;;;;;;14.50;68.36;99635.44;5115561;28;20052;-64
2022/09/16 04:34:07;;;;;;;6.45;1.90;;;;;;;14.54;68.70;99625.16;5115720;28;20053;-63
2022/09/16 04:36:34;;;;;;;4.55;1.88;;;;;;;14.47;68.73;99620.19;5115927;28;20075;-63
2022/09/16 04:39:01;;;;;;;4.50;1.63;;;;;;;14.50;68.32;99635.44;5115627;28;20045;-63
2022/09/16 04:41:28;;;;;;;4.85;1.52;;;;;;;14.46;67.89;99626.94;5099472;28;20059;-63
2022/09/16 04:43:59;;;;;;;4.38;2.00;;;;;;;14.32;68.41;99627.41;5101875;28;20091;-64
2022/09/16 04:46:28;;;;;;;8.45;2.20;;;;;;;14.39;68.10;99627.59;5115341;28;20055;-64
2022/09/16 04:48:56;;;;;;;4.88;1.70;;;;;;;14.43;68.07;99633.28;5115519;28;20081;-63
2022/09/16 04:51:26;;;;;;;5.93;1.90;;;;;;;14.44;68.28;99628.50;5115354;28;20498;-63
2022/09/16 04:53:54;;;;;;;4.75;1.70;;;;;;;14.47;69.55;99623.00;5115392;28;20043;-64
2022/09/16 04:56:23;;;;;;;5.82;1.90;;;;;;;14.55;67.98;99633.22;5106749;28;20521;-64
2022/09/16 04:58:52;;;;;;;7.13;1.85;;;;;;;14.57;68.74;99633.69;5106279;28;20054;-62
2022/09/16 05:01:22;;;;;;;7.18;2.50;;;;;;;14.51;69.05;99629.50;5104296;28;20047;-63
2022/09/16 05:03:51;;;;;;;3.90;1.83;;;;;;;14.57;69.17;99633.69;5102596;28;20059;-63
2022/09/16 05:06:20;;;;;;;5.53;1.92;;;;;;;14.54;69.35;99633.56;5115117;28;20479;-64
2022/09/16 05:08:47;;;;;;;4.82;1.90;;;;;;;14.47;68.13;99634.19;5114137;28;20051;-64
2022/09/16 05:11:16;;;;;;;6.03;2.00;;;;;;;14.52;68.55;99638.72;5115208;28;20044;-64
2022/09/16 05:13:44;;;;;;;5.43;2.30;;;;;;;14.50;68.14;99636.25;5117074;27;20066;-64
2022/09/16 05:16:13;;;;;;;6.63;2.28;;;;;;;14.48;68.49;99633.00;5107250;28;20419;-63
2022/09/16 05:18:43;;;;;;;6.33;2.60;;;;;;;14.52;68.42;99630.31;5094364;28;20052;-64
2022/09/16 05:21:12;;;;;;;9.48;2.58;;;;;;;14.57;67.63;99628.09;5108296;28;20052;-63
2022/09/16 05:23:39;;;;;;;5.10;2.53;;;;;;;14.44;68.35;99631.28;5114120;28;20407;-64
2022/09/16 05:26:09;;;;;;;5.95;2.35;;;;;;;14.50;67.36;99638.25;5113163;28;20051;-64
2022/09/16 05:28:36;;;;;;;;;;;;;;;14.52;67.89;99633.91;5111664;28;20047;-63
2022/09/16 05:31:11;;;;;;;5.55;1.73;;;;;;;14.55;67.72;99636.03;5111012;28;19920;-63
2022/09/16 05:33:39;;;;;;;5.75;1.95;;;;;;;14.61;67.64;99636.56;5111505;28;20078;-64
2022/09/16 05:36:10;;;;;;;6.88;2.08;;;;;;;14.68;67.66;99638.72;5095265;28;20403;-64
2022/09/16 05:38:38;;;;;;;5.07;1.80;;;;;;;14.74;67.51;99626.06;5100341;28;20048;-64
2022/09/16 05:41:06;;;;;;;8.45;2.40;;;;;;;14.77;67.61;99634.56;5094200;28;20056;-63
2022/09/16 05:43:34;;;;;;;5.43;1.70;;;;;;;14.83;67.73;99635.09;5111378;28;20392;-63
2022/09/16 05:46:03;;;;;;;4.73;1.90;;;;;;;14.81;67.28;99631.84;5096638;28;20060;-63
2022/09/16 05:48:30;;;;;;;5.43;2.22;;;;;;;14.82;67.67;99628.69;5093795;28;20454;-64
2022/09/16 05:51:00;;;;;;;4.70;1.95;;;;;;;14.89;67.28;99622.44;5104794;28;20060;-64
2022/09/16 05:53:29;;;;;;;;;;;;;;;14.85;66.22;99627.16;5113148;28;20062;-63
2022/09/16 05:55:58;;;;;;;4.88;2.28;;;;;;;14.90;66.82;99629.66;5095112;28;19920;-64
2022/09/16 05:58:27;;;;;;;4.90;1.80;;;;;;;14.91;66.13;99631.28;5096831;28;20047;-63
2022/09/16 06:00:58;;;;;;;5.50;1.95;;;;;;;14.95;66.77;99620.97;5102157;28;20048;-64
2022/09/16 06:03:27;;;;;;;7.40;2.08;;;;;;;14.91;66.61;99631.28;5110224;28;20052;-63
2022/09/16 06:06:00;;;;;;;4.97;1.88;;;;;;;14.96;66.00;99639.41;5113857;28;20051;-64
2022/09/16 06:08:31;;;;;;;5.05;1.98;;;;;;;14.97;65.77;99629.84;5107679;28;20562;-64
2022/09/16 06:11:00;;;;;;;7.40;2.38;;;;;;;14.82;65.86;99631.50;5093425;28;20051;-64
2022/09/16 06:13:28;;;;;;;10.30;4.30;;;;;;;14.85;66.77;99629.94;5111868;27;20416;-64
2022/09/16 06:15:55;;;;;;;6.80;2.60;;;;;;;14.97;66.19;99629.84;5133871;27;20403;-63
2022/09/16 06:18:24;;;;;;;5.00;2.20;;;;;;;14.89;66.31;99630.00;5133963;27;20487;-64
2022/09/16 06:20:52;;;;;;;5.35;1.90;;;;;;;15.03;66.50;99633.16;5133813;27;20051;-63
2022/09/16 06:23:19;;;;;;;3.08;1.60;;;;;;;15.19;65.29;99628.31;5104778;27;20553;-64
2022/09/16 06:25:49;;;;;;;5.90;1.67;;;;;;;15.31;65.35;99635.00;5104884;28;20525;-64
2022/09/16 06:28:16;;;;;;;5.00;1.90;;;;;;;15.51;64.41;99636.63;5105696;28;20043;-64
2022/09/16 06:30:43;;;;;;;3.80;1.58;;;;;;;15.69;64.09;99630.59;5102942;28;20066;-64
2022/09/16 06:33:11;;;;;;;4.97;2.00;;;;;;;15.86;63.55;99630.16;5105041;28;20059;-64
2022/09/16 06:35:38;;;;;;;3.75;1.67;;;;;;;15.99;62.83;99636.44;5099054;28;20059;-63
2022/09/16 06:38:06;;;;;;;6.30;1.60;;;;;;;16.12;62.08;99639.88;5097780;28;20062;-62
2022/09/16 06:40:36;;;;;;;5.22;1.85;;;;;;;16.13;62.14;99636.72;5101987;27;20051;-63
2022/09/16 06:43:05;;;;;;;3.78;2.00;;;;;;;16.13;61.45;99639.53;5101122;28;20051;-64
2022/09/16 06:45:32;;;;;;;5.22;2.20;;;;;;;16.13;61.15;99639.53;5101891;28;20051;-62
2022/09/16 06:48:00;;;;;;;3.95;2.28;;;;;;;16.09;61.54;99640.63;5102754;28;20414;-63
2022/09/16 06:50:28;;;;;;;5.03;1.92;;;;;;;16.01;61.81;99642.50;5105700;28;20064;-64
2022/09/16 06:52:55;;;;;;;5.97;2.00;;;;;;;16.08;61.65;99642.63;5096279;28;20431;-63
2022/09/16 06:55:22;;;;;;;5.65;1.88;;;;;;;16.22;61.85;99634.47;5101153;28;20052;-64
2022/09/16 06:57:49;;;;;;;5.40;2.28;;;;;;;16.38;61.01;99633.56;5100014;28;20056;-64
2022/09/16 07:00:18;;;;;;;4.40;2.10;;;;;;;16.46;60.29;99632.47;5101958;28;20047;-64
2022/09/16 07:02:45;;;;;;;6.15;1.88;;;;;;;16.42;59.92;99629.63;5097407;28;20048;-64
2022/09/16 07:05:13;;;;;;;4.05;1.60;;;;;;;16.40;60.07;99632.00;5104470;28;20051;-62
2022/09/16 07:07:41;;;;;;;8.75;3.05;;;;;;;16.36;60.39;99635.94;5099192;28;20047;-64
2022/09/16 07:10:09;;;;;;;4.95;2.33;;;;;;;16.50;60.44;99640.97;5099778;28;20839;-63
2022/09/16 07:12:36;;;;;;;6.22;1.75;;;;;;;16.64;60.06;99633.59;5096409;27;20736;-63
2022/09/16 07:15:04;;;;;;;5.65;2.13;;;;;;;16.82;59.85;99628.28;5098453;28;20070;-62
2022/09/16 07:17:32;;;;;;;4.72;1.90;;;;;;;16.84;59.78;99639.19;5100020;28;20056;-63
2022/09/16 07:20:00;;;;;;;5.72;1.75;;;;;;;16.91;60.11;99644.09;5096808;28;20055;-64
2022/09/16 07:22:30;;;;;;;4.30;1.55;;;;;;;16.98;59.14;99645.00;5091499;28;20058;-65
2022/09/16 07:24:58;;;;;;;5.88;2.03;;;;;;;16.92;59.54;99643.69;5100679;28;20052;-64
2022/09/16 07:27:25;;;;;;;4.75;1.85;;;;;;;17.01;59.45;99649.88;5092584;28;20047;-64
2022/09/16 07:29:53;;;;;;;6.50;2.05;;;;;;;17.17;58.37;99643.28;5095877;28;20078;-64
2022/09/16 07:32:20;;;;;;;4.80;1.60;;;;;;;17.44;59.01;99646.88;5103199;28;20040;-64
2022/09/16 07:34:49;;;;;;;5.10;2.03;;;;;;;17.68;57.29;99651.25;5092673;28;20067;-64
2022/09/16 07:37:17;;;;;;;3.50;1.80;;;;;;;18.51;56.18;99655.78;5091223;28;20052;-64
2022/09/16 07:39:44;;;;;;;6.97;2.40;;;;;;;18.53;54.50;99652.59;5090645;28;20048;-63
2022/09/16 07:42:12;;;;;;;5.03;1.92;;;;;;;18.38;55.40;99657.28;5092094;28;20063;-62
2022/09/16 07:44:39;;;;;;;5.38;1.80;;;;;;;18.41;55.33;99659.31;5102365;28;20059;-64
2022/09/16 07:47:06;;;;;;;7.38;2.72;;;;;;;18.26;54.78;99661.19;5105471;28;20063;-64
2022/09/16 07:49:34;;;;;;;4.72;2.55;;;;;;;18.17;55.28;99661.50;5114071;28;20055;-64
2022/09/16 07:52:02;;;;;;;6.18;2.83;;;;;;;17.99;54.99;99661.28;5107665;28;20401;-64
2022/09/16 07:54:30;;;;;;;6.10;2.70;;;;;;;18.03;54.94;99659.31;5106364;28;20419;-64
2022/09/16 07:56:57;;;;;;;6.65;2.80;;;;;;;18.69;53.95;99655.13;5102360;28;20492;-63
2022/09/16 07:59:25;;;;;;;5.15;3.05;;;;;;;19.10;53.06;99657.94;5112106;28;20408;-64
2022/09/16 08:01:52;;;;;;;7.18;2.75;;;;;;;20.33;51.20;99651.66;5113638;28;20056;-64
2022/09/16 08:04:20;;;;;;;4.90;3.00;;;;;;;20.72;48.50;99656.56;5109986;28;20059;-64
2022/09/16 08:06:48;;;;;;;4.45;2.53;;;;;;;20.75;48.31;99655.78;5112498;28;20044;-62
2022/09/16 08:09:16;;;;;;;5.93;2.50;;;;;;;21.06;47.48;99651.28;5102373;28;20054;-64
2022/09/16 08:11:44;;;;;;;5.25;2.90;;;;;;;23.22;43.54;99649.00;5100259;28;20537;-64
2022/09/16 08:14:13;;;;;;;6.68;3.55;;;;;;;23.12;42.46;99652.78;5119184;27;20059;-64
2022/09/16 08:16:40;;;;;;;5.00;3.05;;;;;;;24.06;41.65;99655.38;5114183;28;20047;-65
2022/09/16 08:19:07;;;;;;;4.78;2.63;;;;;;;25.55;38.94;99647.69;5103077;28;20071;-65
2022/09/16 08:21:34;;;;;;;4.72;2.60;;;;;;;27.40;35.12;99646.72;5106601;28;20051;-64
2022/09/16 08:24:02;;;;;;;5.10;2.58;;;;;;;28.90;32.97;99643.47;5112903;28;20487;-64
2022/09/16 08:26:31;;;;;;;4.65;2.42;;;;;;;29.86;31.69;99645.03;5113639;28;20075;-63
2022/09/16 08:28:58;;;;;;;6.07;3.20;;;;;;;30.69;29.14;99651.22;5093647;28;20052;-64
2022/09/16 08:31:25;;;;;;;4.85;2.50;;;;;;;32.23;27.92;99649.44;5105467;28;20487;-64
2022/09/16 08:33:52;;;;;;;5.80;2.58;;;;;;;31.74;27.43;99644.72;5108350;28;20059;-62
2022/09/16 08:36:21;;;;;;;3.70;2.08;;;;;;;32.31;26.10;99653.59;5114328;28;20054;-63
2022/09/16 08:38:52;;;;;;;3.20;2.10;;;;;;;32.70;25.68;99641.47;5104248;28;20078;-63
2022/09/16 08:41:36;;;;;;;4.03;2.80;;;;;;;31.99;26.80;99648.56;5098630;28;20506;-64
2022/09/16 08:44:16;;;;;;;3.80;1.77;;;;;;;32.67;24.79;99646.09;5103528;28;20056;-62
2022/09/16 08:46:52;;;;;;;4.65;2.15;;;;;;;31.54;26.36;99659.59;5071803;28;20059;-63
2022/09/16 08:49:28;;;;;;;5.35;2.35;;;;;;;29.90;27.51;99660.06;5072027;28;20075;-63
2022/09/16 08:51:58;;;;;;;5.60;2.50;;;;;;;30.09;28.13;99655.25;5069922;28;20053;-63
2022/09/16 08:54:28;;;;;;;4.63;2.85;;;;;;;31.14;26.06;99651.84;5053303;28;20064;-63
2022/09/16 08:57:00;;;;;;;4.25;2.60;;;;;;;32.02;25.67;99656.22;5053978;28;20057;-63
2022/09/16 08:59:34;;;;;;;4.55;2.00;;;;;;;30.72;26.86;99650.28;5063275;28;20441;-62
2022/09/16 09:02:23;;;;;;;4.90;2.03;;;;;;;29.50;28.17;99654.13;5057141;28;20049;-62
2022/09/16 09:04:51;;;;;;;4.07;2.13;;;;;;;28.76;29.99;99669.75;5057276;28;20052;-63
2022/09/16 09:07:39;;;;;;;5.85;3.13;;;;;;;28.94;28.88;99659.28;5056492;28;20052;-63
2022/09/16 09:10:17;;;;;;;4.35;2.40;;;;;;;27.71;31.07;99666.31;5054688;28;20053;-63
2022/09/16 09:12:49;;;;;;;4.35;2.70;;;;;;;26.89;32.17;99657.84;5065065;28;20505;-63
2022/09/16 09:15:32;;;;;;;3.33;2.28;;;;;;;26.89;32.52;99661.50;5065185;28;20048;-62
2022/09/16 09:18:18;;;;;;;4.45;2.35;;;;;;;26.38;32.85;99665.97;5064777;28;20059;-62
2022/09/16 09:20:54;;;;;;;4.57;2.13;;;;;;;25.44;33.59;99662.16;5064439;28;20056;-63
2022/09/16 09:23:35;;;;;;;4.28;2.08;;;;;;;25.03;34.31;99663.31;5069198;28;20051;-63
2022/09/16 09:26:15;;;;;;;4.13;1.85;;;;;;;25.09;34.20;99667.25;5062774;28;20351;-63
2022/09/16 09:29:06;;;;;;;3.92;1.92;;;;;;;24.35;35.22;99666.38;5068025;28;20115;-63
2022/09/16 09:31:43;;;;;;;3.30;1.60;;;;;;;23.61;37.70;99675.41;5062156;28;20052;-62
2022/09/16 09:34:26;;;;;;;4.78;1.90;;;;;;;22.98;39.16;99675.59;5054738;28;20064;-63
2022/09/16 09:37:07;;;;;;;3.83;1.90;;;;;;;22.28;44.76;99668.78;5056811;28;20060;-63
2022/09/16 09:39:49;;;;;;;4.38;1.45;;;;;;;21.45;42.35;99668.25;5067334;28;20556;-63
2022/09/16 09:42:21;;;;;;;3.58;1.08;;;;;;;21.08;42.82;99672.34;5060102;28;20049;-63
2022/09/16 09:44:56;;;;;;;5.00;1.30;;;;;;;20.48;44.62;99667.44;5064511;28;20060;-62
2022/09/16 09:47:29;;;;;;;4.28;1.30;;;;;;;20.11;46.02;99681.88;5099485;28;20055;-63
2022/09/16 09:49:58;;;;;;;3.95;1.38;;;;;;;19.84;46.51;99668.88;5104749;28;20051;-63
2022/09/16 09:52:32;;;;;;;6.70;2.30;;;;;;;19.56;47.94;99671.53;5105868;28;20054;-62
2022/09/16 09:55:12;;;;;;;3.00;1.70;;;;;;;19.39;48.93;99667.41;5095716;28;20051;-63
2022/09/16 09:57:46;;;;;;;3.08;1.60;;;;;;;19.14;50.14;99664.41;5102091;28;20597;-60
2022/09/16 10:00:17;;;;;;;2.55;1.70;;;;;;;18.97;51.55;99678.00;5104201;28;20515;-62
2022/09/16 10:02:46;;;;;;;4.63;1.70;;;;;;;18.85;52.30;99673.44;5101834;28;20048;-63
2022/09/16 10:05:21;;;;;;;5.82;1.90;;;;;;;18.76;53.13;99669.31;5101714;28;20496;-62
2022/09/16 10:07:49;;;;;;;5.60;1.95;;;;;;;18.68;53.41;99676.91;5099515;28;20044;-63
2022/09/16 10:10:20;;;;;;;3.70;1.83;;;;;;;18.60;52.86;99673.19;5094007;28;20055;-62
2022/09/16 10:12:47;;;;;;;3.08;1.80;;;;;;;18.46;54.59;99673.88;5101978;28;20484;-63
2022/09/16 10:15:23;;;;;;;4.78;1.88;;;;;;;18.41;54.18;99667.78;5099880;28;20061;-63
2022/09/16 10:17:53;;;;;;;4.20;1.73;;;;;;;18.40;53.96;99666.97;5102818;28;20055;-62
2022/09/16 10:20:27;;;;;;;4.97;1.60;;;;;;;18.46;52.80;99659.78;5112775;28;20055;-63
2022/09/16 10:22:59;;;;;;;2.78;1.55;;;;;;;18.70;52.53;99656.78;5099321;28;20419;-63
2022/09/16 10:25:29;;;;;;;5.65;1.55;;;;;;;18.99;51.74;99661.47;5113471;28;20063;-62
2022/09/16 10:27:58;;;;;;;3.08;1.73;;;;;;;20.30;51.01;99649.63;5104991;28;20514;-62
2022/09/16 10:30:27;;;;;;;6.13;1.80;;;;;;;22.83;45.52;99649.34;5095448;28;20063;-61
2022/09/16 10:33:00;;;;;;;4.93;1.60;;;;;;;25.17;41.73;99641.47;5099383;28;20052;-63
2022/09/16 10:35:29;;;;;;;3.53;1.63;;;;;;;26.71;35.27;99632.56;5109549;28;20051;-63
2022/09/16 10:37:59;;;;;;;4.82;1.23;;;;;;;28.21;32.80;99624.78;5102035;27;20500;-62
2022/09/16 10:40:27;;;;;;;1.77;1.08;;;;;;;29.54;31.08;99624.00;5106529;28;20757;-62
2022/09/16 10:42:59;;;;;;;3.42;1.30;;;;;;;29.40;30.70;99621.69;5103213;27;20405;-63
2022/09/16 10:45:29;;;;;;;3.83;1.60;;;;;;;30.18;28.45;99625.75;5105447;28;20058;-62
2022/09/16 10:48:00;;;;;;;2.50;1.33;;;;;;;30.77;27.23;99622.19;5092086;28;20055;-62
2022/09/16 10:50:28;;;;;;;2.95;1.30;;;;;;;31.30;26.19;99619.13;5099450;28;20492;-62
2022/09/16 10:52:55;;;;;;;3.80;1.30;;;;;;;31.43;27.27;99621.84;5092491;28;20456;-62
2022/09/16 10:55:26;;;;;;;3.20;1.30;;;;;;;32.26;24.79;99621.75;5099705;28;20047;-62
2022/09/16 10:57:55;;;;;;;3.22;1.40;;;;;;;32.32;24.83;99622.72;5111386;28;20052;-62
2022/09/16 11:00:24;;;;;;;2.45;1.25;;;;;;;33.13;24.21;99625.69;5100967;28;20047;-62
2022/09/16 11:03:29;;;;;;;3.15;1.10;;;;;;;32.81;23.51;99612.09;5093881;28;20055;-62
2022/09/16 11:06:08;;;;;;;2.33;0.90;;;;;;;31.38;24.69;99616.72;5096693;28;20476;-63
2022/09/16 11:08:44;;;;;;;;;;;;;;;29.54;26.54;99614.63;5094244;28;20055;-62
2022/09/16 11:11:19;;;;;;;3.70;1.10;;;;;;;28.78;26.87;99627.09;5099344;28;19931;-62
2022/09/16 11:13:55;;;;;;;2.67;0.82;;;;;;;27.40;28.72;99629.56;5099615;28;20048;-63
2022/09/16 11:16:45;;;;;;;4.13;1.15;;;;;;;26.20;30.66;99629.25;5097521;28;20044;-62
2022/09/16 11:19:23;;;;;;;3.53;0.73;;;;;;;25.28;32.91;99647.81;5093404;28;20059;-62
2022/09/16 11:22:06;;;;;;;2.27;1.03;;;;;;;24.36;36.50;99648.03;5092068;28;20051;-62
2022/09/16 11:24:54;;;;;;;4.72;1.38;;;;;;;23.56;37.60;99653.94;5093350;28;20501;-62
2022/09/16 11:27:34;;;;;;;4.57;1.50;;;;;;;22.94;39.96;99652.88;5097461;28;20059;-62
2022/09/16 11:30:10;;;;;;;2.70;1.40;;;;;;;22.46;41.14;99636.63;5097385;28;20043;-59
2022/09/16 11:33:03;;;;;;;5.55;1.70;;;;;;;22.17;41.40;99638.81;5092192;28;20048;-62
2022/09/16 11:35:59;;;;;;;4.75;1.48;;;;;;;21.75;41.90;99643.47;5098036;28;20047;-61
2022/09/16 11:38:37;;;;;;;5.85;2.10;;;;;;;21.84;42.75;99650.34;5097963;28;20043;-62
2022/09/16 11:41:13;;;;;;;4.10;2.90;;;;;;;22.35;41.24;99650.09;5105271;28;20048;-62
2022/09/16 11:44:08;;;;;;;5.20;1.80;;;;;;;22.64;40.33;99645.84;5111553;28;20523;-62
2022/09/16 11:46:43;;;;;;;3.78;1.48;;;;;;;22.84;40.43;99646.06;5099176;28;20043;-62
2022/09/16 11:49:28;;;;;;;7.40;1.80;;;;;;;24.40;37.40;99643.09;5110801;28;20063;-62
2022/09/16 11:52:09;;;;;;;5.20;1.60;;;;;;;25.96;34.94;99637.16;5093944;28;20055;-62
2022/09/16 11:54:58;;;;;;;4.88;1.30;;;;;;;26.36;34.09;99637.06;5095603;28;20043;-62